Time;durP1;ratioP1;P1;durP2;ratioP2;P2;SDS_P1;SDS_P2;PMS_P1;PMS_P2;Temp;Humidity;BMP_temperature;BMP_pressure;BME280_temperature;BME280_humidity;BME280_pressure;Samples;Min_cycle;Max_cycle;Signal;HPM_P1;HPM_P2
2022/12/25 10:07:21;;;;;;;41.90;22.40;;;11.10;99.90;;;;;;4858023;29;20227;-72
2022/12/25 10:10:02;;;;;;;5.17;3.77;;;11.10;99.90;;;;;;4858348;29;20208;-71
2022/12/25 10:12:45;;;;;;;3.77;2.00;;;11.20;99.90;;;;;;4854271;29;20239;-71
2022/12/25 10:15:24;;;;;;;3.17;1.60;;;11.10;99.90;;;;;;4859102;29;20212;-72
2022/12/25 10:18:08;;;;;;;1.67;1.33;;;11.10;99.90;;;;;;4861617;29;20211;-73
2022/12/25 10:20:42;;;;;;;2.30;1.50;;;11.10;99.90;;;;;;4856779;29;20239;-72
2022/12/25 10:23:16;;;;;;;2.10;1.43;;;11.10;99.90;;;;;;4856094;29;20322;-72
2022/12/25 10:25:44;;;;;;;2.20;1.40;;;11.00;99.90;;;;;;4855913;29;20215;-72
2022/12/25 10:28:14;;;;;;;4.83;1.63;;;11.00;99.90;;;;;;4857964;29;20303;-72
2022/12/25 10:30:43;;;;;;;2.40;1.50;;;11.30;99.90;;;;;;4854151;29;20215;-72
2022/12/25 10:33:13;;;;;;;3.63;1.20;;;11.50;99.90;;;;;;4858753;29;20288;-73
2022/12/25 10:35:41;;;;;;;3.43;1.47;;;11.70;99.90;;;;;;4859555;29;20209;-73
2022/12/25 10:38:14;;;;;;;2.27;1.63;;;11.60;99.90;;;;;;4861539;29;20216;-73
2022/12/25 10:40:54;;;;;;;2.53;1.90;;;11.50;99.90;;;;;;4857780;29;20204;-71
2022/12/25 10:43:29;;;;;;;3.50;1.90;;;11.50;99.90;;;;;;4859127;29;20231;-73
2022/12/25 10:45:56;;;;;;;3.97;1.83;;;11.30;99.90;;;;;;4858952;29;20254;-72
2022/12/25 10:48:26;;;;;;;2.97;1.80;;;11.40;99.90;;;;;;4862918;29;20306;-72
2022/12/25 10:50:53;;;;;;;2.93;2.07;;;11.50;99.90;;;;;;4862612;29;20555;-72
2022/12/25 10:53:24;;;;;;;3.37;2.27;;;11.40;99.90;;;;;;4862232;29;20255;-73
2022/12/25 10:55:59;;;;;;;4.47;1.90;;;11.30;99.90;;;;;;4862408;29;20212;-73
2022/12/25 10:58:27;;;;;;;3.10;2.07;;;11.10;99.90;;;;;;4862219;29;20598;-73
2022/12/25 11:00:57;;;;;;;4.03;2.37;;;11.00;99.90;;;;;;4862063;29;20212;-73
2022/12/25 11:03:27;;;;;;;4.60;3.30;;;10.90;99.90;;;;;;4862583;29;20698;-73
2022/12/25 11:05:55;;;;;;;4.17;2.67;;;11.00;99.90;;;;;;4862261;29;20689;-73
2022/12/25 11:08:25;;;;;;;2.33;1.50;;;11.00;99.90;;;;;;4862092;29;20697;-74
2022/12/25 11:10:54;;;;;;;3.23;2.17;;;10.90;99.90;;;;;;4862399;29;20575;-74
2022/12/25 11:13:24;;;;;;;4.17;2.60;;;11.00;99.90;;;;;;4862242;29;20232;-74
2022/12/25 11:16:02;;;;;;;2.93;1.90;;;11.10;99.90;;;;;;4862457;29;20216;-74
2022/12/25 11:18:32;;;;;;;3.30;2.20;;;11.00;99.90;;;;;;4862519;29;20235;-74
2022/12/25 11:21:01;;;;;;;2.30;1.57;;;11.00;99.90;;;;;;4858852;29;20212;-75
2022/12/25 11:23:31;;;;;;;2.83;1.50;;;11.10;99.90;;;;;;4861694;29;20236;-74
2022/12/25 11:26:00;;;;;;;3.17;1.60;;;11.10;99.90;;;;;;4864682;29;20287;-74
2022/12/25 11:28:29;;;;;;;4.23;2.33;;;11.20;99.90;;;;;;4843416;29;20217;-74
2022/12/25 11:31:00;;;;;;;4.53;2.90;;;11.20;99.90;;;;;;4843256;29;20216;-73
2022/12/25 11:33:32;;;;;;;4.27;2.60;;;11.20;99.90;;;;;;4842818;29;20239;-80
2022/12/25 11:36:03;;;;;;;4.37;3.00;;;11.30;99.90;;;;;;4841723;29;20221;-74
2022/12/25 11:38:31;;;;;;;4.83;3.60;;;11.30;99.90;;;;;;4841993;29;20668;-73
2022/12/25 11:41:01;;;;;;;4.03;2.50;;;11.30;99.90;;;;;;4842533;29;20221;-73
2022/12/25 11:43:35;;;;;;;2.97;1.67;;;11.40;99.90;;;;;;4842838;29;20237;-73
2022/12/25 11:46:17;;;;;;;4.87;2.50;;;11.50;99.90;;;;;;4843082;29;20223;-70
2022/12/25 11:48:54;;;;;;;5.90;2.40;;;11.70;99.90;;;;;;4842933;29;20213;-72
2022/12/25 11:51:24;;;;;;;3.50;2.17;;;11.70;99.90;;;;;;4842602;29;20572;-73
2022/12/25 11:53:55;;;;;;;3.60;2.10;;;11.60;99.90;;;;;;4843283;29;20212;-74
2022/12/25 11:56:24;;;;;;;4.33;2.30;;;11.60;99.90;;;;;;4843456;29;20213;-73
2022/12/25 11:58:53;;;;;;;5.40;2.97;;;11.50;99.90;;;;;;4843139;29;20236;-69
2022/12/25 12:01:30;;;;;;;5.43;3.33;;;11.30;99.90;;;;;;4843036;29;20220;-70
2022/12/25 12:03:59;;;;;;;4.67;3.10;;;11.40;99.90;;;;;;4843103;29;20212;-70
2022/12/25 12:06:30;;;;;;;4.63;2.97;;;11.40;99.90;;;;;;4842401;29;20220;-69
2022/12/25 12:09:07;;;;;;;4.77;3.13;;;11.40;99.90;;;;;;4842569;29;20227;-69
2022/12/25 12:11:41;;;;;;;3.97;2.47;;;11.50;99.90;;;;;;4842718;29;20216;-69
2022/12/25 12:14:22;;;;;;;3.40;2.17;;;11.50;99.90;;;;;;4843120;29;20227;-70
2022/12/25 12:16:48;;;;;;;2.83;2.03;;;11.60;99.90;;;;;;4842833;29;20217;-72
2022/12/25 12:19:26;;;;;;;3.77;2.27;;;11.80;99.90;;;;;;4842304;29;20722;-71
2022/12/25 12:21:55;;;;;;;3.97;2.20;;;11.90;99.90;;;;;;4842436;29;20240;-69
2022/12/25 12:24:25;;;;;;;3.87;2.30;;;11.90;99.90;;;;;;4842396;29;20240;-71
2022/12/25 12:27:02;;;;;;;3.13;2.13;;;11.70;99.90;;;;;;4842636;29;20232;-70
2022/12/25 12:29:32;;;;;;;3.60;2.20;;;11.60;99.90;;;;;;4842694;29;20221;-71
2022/12/25 12:32:02;;;;;;;4.80;2.73;;;11.60;99.90;;;;;;4845010;29;20246;-71
2022/12/25 12:34:34;;;;;;;4.00;2.53;;;11.60;99.90;;;;;;4847352;29;20209;-70
2022/12/25 12:37:04;;;;;;;3.87;2.60;;;11.60;99.90;;;;;;4842602;29;20216;-73
2022/12/25 12:39:37;;;;;;;4.97;2.80;;;11.70;99.90;;;;;;4842567;29;20243;-71
2022/12/25 12:42:13;;;;;;;4.83;3.03;;;11.60;99.90;;;;;;4842532;29;20233;-72
2022/12/25 12:44:40;;;;;;;5.87;3.00;;;11.60;99.90;;;;;;4841868;29;20216;-71
2022/12/25 12:47:26;;;;;;;9.53;5.00;;;11.40;99.90;;;;;;4842176;29;20311;-70
2022/12/25 12:49:58;;;;;;;5.17;2.90;;;11.30;99.90;;;;;;4842370;29;20691;-71
2022/12/25 12:52:30;;;;;;;4.53;2.70;;;11.20;99.90;;;;;;4842074;29;20233;-72
2022/12/25 12:55:01;;;;;;;5.57;3.03;;;11.20;99.90;;;;;;4842036;29;20675;-71
2022/12/25 12:57:31;;;;;;;4.07;2.40;;;11.20;99.90;;;;;;4842082;29;20235;-71
2022/12/25 13:00:00;;;;;;;4.10;2.47;;;11.30;99.90;;;;;;4842048;29;20275;-71
2022/12/25 13:03:02;;;;;;;5.20;2.97;;;11.30;99.90;;;;;;4842206;29;20259;-70
2022/12/25 13:05:37;;;;;;;3.03;1.70;;;11.30;99.90;;;;;;4841966;29;20242;-72
2022/12/25 13:08:15;;;;;;;3.80;1.83;;;11.20;99.90;;;;;;4841904;29;20212;-69
2022/12/25 13:10:48;;;;;;;3.00;1.83;;;11.10;99.90;;;;;;4842031;29;20568;-73
2022/12/25 13:13:20;;;;;;;4.77;2.83;;;11.10;99.90;;;;;;4842146;29;20244;-73
2022/12/25 13:15:49;;;;;;;4.67;2.13;;;11.20;99.90;;;;;;4841919;29;20217;-74
2022/12/25 13:18:17;;;;;;;3.60;2.40;;;11.00;99.90;;;;;;4841908;29;20223;-73
2022/12/25 13:20:48;;;;;;;3.90;2.40;;;10.90;99.90;;;;;;4841635;29;20262;-73
2022/12/25 13:23:23;;;;;;;3.47;2.70;;;11.00;99.90;;;;;;4841764;29;20256;-73
2022/12/25 13:25:54;;;;;;;3.70;2.70;;;11.10;99.90;;;;;;4841676;29;20211;-72
2022/12/25 13:28:25;;;;;;;3.77;2.53;;;11.00;99.90;;;;;;4841503;29;20217;-73
2022/12/25 13:30:52;;;;;;;2.90;2.10;;;11.10;99.90;;;;;;4842030;29;20208;-73
2022/12/25 13:33:19;;;;;;;3.37;2.10;;;11.20;99.90;;;;;;4842091;29;20328;-72
2022/12/25 13:35:47;;;;;;;2.67;2.00;;;11.20;99.90;;;;;;4841982;29;20212;-74
2022/12/25 13:38:16;;;;;;;2.93;1.80;;;11.30;99.90;;;;;;4841979;29;20217;-73
2022/12/25 13:42:04;;;;;;;2.70;1.87;;;11.30;99.90;;;;;;4841702;29;20263;-73
2022/12/25 13:43:40;;;;;;;2.50;1.63;;;11.30;99.90;;;;;;4854229;29;20220;-73
2022/12/25 13:46:07;;;;;;;2.53;2.03;;;11.20;99.90;;;;;;4860008;29;20216;-72
2022/12/25 13:48:34;;;;;;;2.30;1.77;;;11.10;99.90;;;;;;4860373;29;20208;-73
2022/12/25 13:51:01;;;;;;;2.97;2.00;;;11.20;99.90;;;;;;4860213;29;20575;-72
2022/12/25 13:53:28;;;;;;;3.63;2.10;;;11.30;99.90;;;;;;4860168;29;20238;-73
2022/12/25 13:55:58;;;;;;;5.30;2.93;;;11.30;99.90;;;;;;4859955;29;20212;-73
2022/12/25 13:58:27;;;;;;;3.37;2.57;;;11.40;99.90;;;;;;4860082;29;20223;-72
2022/12/25 14:00:57;;;;;;;5.17;2.40;;;11.50;99.90;;;;;;4860219;29;20239;-73
2022/12/25 14:03:28;;;;;;;5.50;2.77;;;11.60;99.90;;;;;;4861292;29;20235;-73
2022/12/25 14:05:57;;;;;;;4.90;2.80;;;11.70;99.90;;;;;;4863335;29;20223;-74
2022/12/25 14:08:26;;;;;;;3.53;2.67;;;11.70;99.90;;;;;;4863347;29;20215;-73
2022/12/25 14:10:54;;;;;;;4.97;3.10;;;11.70;99.90;;;;;;4863424;29;20219;-72
2022/12/25 14:13:24;;;;;;;3.80;2.90;;;11.80;99.90;;;;;;4863270;29;20232;-72
2022/12/25 14:15:53;;;;;;;4.87;2.93;;;11.70;99.90;;;;;;4863467;29;20219;-73
2022/12/25 14:18:22;;;;;;;4.70;2.43;;;11.80;99.90;;;;;;4863423;29;20735;-72
2022/12/25 14:20:59;;;;;;;4.70;3.07;;;11.90;99.90;;;;;;4863011;29;20249;-72
2022/12/25 14:23:28;;;;;;;4.53;2.87;;;11.80;99.90;;;;;;4863737;29;20599;-72
2022/12/25 14:25:55;;;;;;;4.93;3.10;;;11.90;99.90;;;;;;4863121;29;20212;-72
2022/12/25 14:28:25;;;;;;;5.37;3.23;;;11.90;99.90;;;;;;4863039;29;20212;-73
2022/12/25 14:30:52;;;;;;;5.30;3.47;;;11.90;99.90;;;;;;4863093;29;20223;-72
2022/12/25 14:33:23;;;;;;;7.23;3.03;;;11.90;99.90;;;;;;4862811;29;20239;-73
2022/12/25 14:35:51;;;;;;;5.43;3.43;;;11.80;99.90;;;;;;4863189;29;20231;-72
2022/12/25 14:38:24;;;;;;;5.60;3.30;;;11.80;99.90;;;;;;4863114;29;20215;-70
2022/12/25 14:40:59;;;;;;;5.90;3.63;;;11.80;99.90;;;;;;4863078;29;20751;-73
2022/12/25 14:43:28;;;;;;;4.30;3.30;;;11.80;99.90;;;;;;4862921;29;20254;-73
2022/12/25 14:45:56;;;;;;;5.40;3.77;;;11.80;99.90;;;;;;4862674;29;20236;-73
2022/12/25 14:48:26;;;;;;;7.30;4.00;;;11.90;99.90;;;;;;4862683;29;20214;-74
2022/12/25 14:50:58;;;;;;;6.07;3.70;;;11.90;99.90;;;;;;4862862;29;20222;-73
2022/12/25 14:53:33;;;;;;;7.03;4.00;;;11.90;99.90;;;;;;4862525;29;20703;-72
2022/12/25 14:56:01;;;;;;;6.77;4.17;;;11.90;99.90;;;;;;4862398;29;20208;-73
2022/12/25 14:58:31;;;;;;;6.13;4.07;;;11.90;99.90;;;;;;4862205;29;20216;-71
2022/12/25 15:01:00;;;;;;;5.83;3.80;;;11.90;99.90;;;;;;4862437;29;20240;-73
2022/12/25 15:03:30;;;;;;;7.67;4.27;;;11.90;99.90;;;;;;4862240;29;20238;-73
2022/12/25 15:06:00;;;;;;;6.83;3.77;;;11.90;99.90;;;;;;4862430;29;20220;-71
2022/12/25 15:08:27;;;;;;;6.63;4.10;;;11.90;99.90;;;;;;4862507;29;20214;-70
2022/12/25 15:10:55;;;;;;;9.17;3.73;;;12.00;99.90;;;;;;4862138;29;20212;-73
2022/12/25 15:13:22;;;;;;;6.60;3.97;;;12.00;99.90;;;;;;4862466;29;20723;-73
2022/12/25 15:15:56;;;;;;;7.27;3.80;;;12.00;99.90;;;;;;4861529;29;20219;-72
2022/12/25 15:18:25;;;;;;;6.33;3.43;;;12.00;99.90;;;;;;4862367;29;20215;-73
2022/12/25 15:20:55;;;;;;;8.37;3.03;;;11.90;99.90;;;;;;4862029;29;20250;-73
2022/12/25 15:23:24;;;;;;;9.97;4.03;;;11.90;99.90;;;;;;4862127;29;20329;-71
2022/12/25 15:25:51;;;;;;;9.80;4.10;;;12.00;99.90;;;;;;4862249;29;20208;-72
2022/12/25 15:28:18;;;;;;;8.80;3.87;;;12.00;99.90;;;;;;4861662;29;20218;-72
2022/12/25 15:30:44;;;;;;;8.40;3.67;;;12.10;99.90;;;;;;4861732;29;20571;-73
2022/12/25 15:33:14;;;;;;;7.63;4.13;;;12.10;99.90;;;;;;4861624;29;20264;-72
2022/12/25 15:35:43;;;;;;;5.67;3.50;;;12.20;99.90;;;;;;4861917;29;20671;-71
2022/12/25 15:38:12;;;;;;;5.40;3.07;;;12.20;99.90;;;;;;4861984;29;20296;-72
2022/12/25 15:40:40;;;;;;;5.60;3.80;;;12.20;99.90;;;;;;4861734;29;20594;-73
2022/12/25 15:43:09;;;;;;;10.17;3.93;;;12.30;99.90;;;;;;4862017;29;20239;-72
2022/12/25 15:45:37;;;;;;;8.57;4.13;;;12.20;99.90;;;;;;4861762;29;20687;-73
2022/12/25 15:48:04;;;;;;;6.33;3.90;;;12.10;99.90;;;;;;4861856;29;20216;-72
2022/12/25 15:50:31;;;;;;;8.97;4.80;;;12.20;99.90;;;;;;4861271;29;20216;-72
2022/12/25 15:52:58;;;;;;;9.40;4.43;;;12.20;99.90;;;;;;4861895;29;20346;-72
2022/12/25 15:55:26;;;;;;;7.03;3.80;;;12.20;99.90;;;;;;4861219;29;20211;-70
2022/12/25 15:57:53;;;;;;;7.00;3.73;;;12.10;99.90;;;;;;4861103;29;20227;-72
2022/12/25 16:00:24;;;;;;;7.57;3.97;;;12.20;99.90;;;;;;4861341;29;20246;-70
2022/12/25 16:02:51;;;;;;;6.23;3.57;;;12.20;99.90;;;;;;4861070;29;20288;-70
2022/12/25 16:05:18;;;;;;;6.20;3.93;;;12.30;99.90;;;;;;4884145;23;20237;-73
2022/12/25 16:07:45;;;;;;;6.93;3.53;;;12.30;99.90;;;;;;4898184;29;20206;-75
2022/12/25 16:10:15;;;;;;;5.97;3.43;;;12.20;99.90;;;;;;4898060;29;20567;-72
2022/12/25 16:12:43;;;;;;;7.90;4.23;;;12.30;99.90;;;;;;4898067;29;20235;-74
2022/12/25 16:15:12;;;;;;;4.70;2.67;;;12.20;99.90;;;;;;4897098;29;20206;-71
2022/12/25 16:17:39;;;;;;;7.57;3.20;;;12.20;99.90;;;;;;4897687;29;20229;-72
2022/12/25 16:20:07;;;;;;;8.20;2.80;;;12.10;99.90;;;;;;4897771;29;20234;-74
2022/12/25 16:22:38;;;;;;;6.90;3.20;;;12.10;99.90;;;;;;4897906;29;20238;-71
2022/12/25 16:25:16;;;;;;;7.70;3.47;;;12.10;99.90;;;;;;4896846;29;20610;-74
2022/12/25 16:27:44;;;;;;;8.10;3.37;;;12.10;99.90;;;;;;4897573;29;20210;-70
2022/12/25 16:30:13;;;;;;;7.03;3.33;;;12.10;99.90;;;;;;4897633;29;20225;-72
2022/12/25 16:32:41;;;;;;;4.57;3.10;;;12.10;99.90;;;;;;4897926;29;20597;-71
2022/12/25 16:35:09;;;;;;;7.97;4.03;;;12.20;99.90;;;;;;4898378;29;20210;-76
2022/12/25 16:37:36;;;;;;;8.50;4.60;;;12.10;99.90;;;;;;4898020;29;20210;-75
2022/12/25 16:40:03;;;;;;;7.10;4.13;;;12.00;99.90;;;;;;4897898;29;20309;-73
2022/12/25 16:42:29;;;;;;;7.30;3.90;;;12.10;99.90;;;;;;4897802;29;20705;-75
2022/12/25 16:44:57;;;;;;;5.87;3.10;;;12.10;99.90;;;;;;4898243;29;20210;-71
2022/12/25 16:47:24;;;;;;;10.07;3.10;;;12.20;99.90;;;;;;4898287;29;20210;-76
2022/12/25 16:49:51;;;;;;;5.80;3.40;;;12.10;99.90;;;;;;4898091;29;20274;-74
2022/12/25 16:52:18;;;;;;;6.93;3.67;;;12.00;99.90;;;;;;4897587;29;20420;-75
2022/12/25 16:54:45;;;;;;;6.37;3.33;;;11.90;99.90;;;;;;4897593;29;20221;-70
2022/12/25 16:57:12;;;;;;;5.30;3.40;;;11.80;99.90;;;;;;4897649;29;20210;-72
2022/12/25 16:59:40;;;;;;;6.13;2.80;;;11.80;99.90;;;;;;4898127;29;20221;-71
2022/12/25 17:02:10;;;;;;;7.53;3.30;;;11.80;99.90;;;;;;4897557;29;20270;-73
2022/12/25 17:04:38;;;;;;;8.00;3.83;;;11.80;99.90;;;;;;4897714;29;20229;-73
2022/12/25 17:07:04;;;;;;;7.77;3.90;;;11.80;99.90;;;;;;4897622;29;20669;-71
2022/12/25 17:09:31;;;;;;;10.67;4.77;;;11.80;99.90;;;;;;4897503;29;20207;-73
2022/12/25 17:11:58;;;;;;;6.53;3.80;;;11.80;99.90;;;;;;4897326;29;20240;-72
2022/12/25 17:14:25;;;;;;;13.33;4.00;;;11.90;99.90;;;;;;4897272;29;20221;-71
2022/12/25 17:16:51;;;;;;;8.57;4.70;;;11.90;99.90;;;;;;4897230;29;20210;-71
2022/12/25 17:19:22;;;;;;;7.23;4.07;;;11.80;99.90;;;;;;4897362;29;20206;-73
2022/12/25 17:21:50;;;;;;;9.77;4.70;;;11.80;99.90;;;;;;4897341;29;20254;-74
2022/12/25 17:24:17;;;;;;;8.17;3.80;;;11.70;99.90;;;;;;4897403;29;20210;-74
2022/12/25 17:26:44;;;;;;;9.87;4.83;;;11.80;99.90;;;;;;4897283;29;20218;-72
2022/12/25 17:29:12;;;;;;;11.77;6.07;;;11.80;99.90;;;;;;4897309;29;20215;-75
2022/12/25 17:31:39;;;;;;;9.20;4.30;;;11.90;99.90;;;;;;4897516;29;20225;-71
2022/12/25 17:34:07;;;;;;;7.63;3.80;;;11.90;99.90;;;;;;4893760;29;20211;-70
2022/12/25 17:36:36;;;;;;;9.13;3.97;;;11.90;99.90;;;;;;4877068;29;20215;-71
2022/12/25 17:39:05;;;;;;;6.73;3.90;;;11.80;99.90;;;;;;4914359;29;20668;-70
2022/12/25 17:41:32;;;;;;;12.43;5.73;;;11.70;99.90;;;;;;4918546;29;20239;-71
2022/12/25 17:43:59;;;;;;;8.20;3.47;;;11.70;99.90;;;;;;4917956;29;20209;-70
2022/12/25 17:46:28;;;;;;;12.27;4.53;;;11.60;99.90;;;;;;4899824;29;20210;-70
2022/12/25 17:48:57;;;;;;;6.00;3.57;;;11.70;99.90;;;;;;4898392;29;20202;-70
2022/12/25 17:51:25;;;;;;;9.33;4.17;;;11.70;99.90;;;;;;4893853;29;20305;-70
2022/12/25 17:53:56;;;;;;;7.03;3.30;;;11.70;99.90;;;;;;4899964;29;20222;-70
2022/12/25 17:56:24;;;;;;;7.77;3.40;;;11.60;99.90;;;;;;4899380;29;20582;-71
2022/12/25 17:58:51;;;;;;;7.13;3.53;;;11.60;99.90;;;;;;4899918;29;20273;-69
2022/12/25 18:01:18;;;;;;;10.33;3.63;;;11.70;99.90;;;;;;4899301;29;20351;-71
2022/12/25 18:03:46;;;;;;;7.87;3.37;;;11.70;99.90;;;;;;4899183;29;20230;-69
2022/12/25 18:06:15;;;;;;;6.33;3.47;;;11.70;99.90;;;;;;4899023;29;20226;-70
2022/12/25 18:08:43;;;;;;;11.70;4.23;;;11.70;99.90;;;;;;4899929;29;20211;-70
2022/12/25 18:11:14;;;;;;;5.00;2.80;;;11.70;99.90;;;;;;4899296;29;20230;-70
2022/12/25 18:13:42;;;;;;;7.13;3.70;;;11.70;99.90;;;;;;4899414;29;20713;-70
2022/12/25 18:16:09;;;;;;;6.77;3.10;;;11.70;99.90;;;;;;4899509;29;20214;-70
2022/12/25 18:18:36;;;;;;;6.40;3.27;;;11.70;99.90;;;;;;4898776;29;20225;-70
2022/12/25 18:21:03;;;;;;;5.27;2.50;;;11.70;99.90;;;;;;4898236;29;20234;-70
2022/12/25 18:23:30;;;;;;;4.57;2.80;;;11.70;99.90;;;;;;4898983;29;20230;-70
2022/12/25 18:26:00;;;;;;;6.83;3.00;;;11.60;99.90;;;;;;4898191;29;20210;-70
2022/12/25 18:28:28;;;;;;;6.27;2.43;;;11.60;99.90;;;;;;4899843;29;20221;-69
2022/12/25 18:30:55;;;;;;;5.60;2.80;;;11.60;99.90;;;;;;4899040;29;20218;-70
2022/12/25 18:33:22;;;;;;;6.23;3.00;;;11.70;99.90;;;;;;4898879;29;20257;-71
2022/12/25 18:35:49;;;;;;;6.80;2.93;;;11.60;99.90;;;;;;4899408;29;20229;-71
2022/12/25 18:38:17;;;;;;;6.57;3.53;;;11.60;99.90;;;;;;4899180;29;20225;-70
2022/12/25 18:40:45;;;;;;;6.37;3.23;;;11.70;99.90;;;;;;4898798;29;20210;-71
2022/12/25 18:43:12;;;;;;;6.73;2.90;;;11.70;99.90;;;;;;4899229;29;20238;-70
2022/12/25 18:45:40;;;;;;;7.50;3.20;;;11.60;99.90;;;;;;4898726;29;20211;-70
2022/12/25 18:48:07;;;;;;;5.70;3.27;;;11.60;99.90;;;;;;4898678;29;20220;-70
2022/12/25 18:50:35;;;;;;;8.63;3.20;;;11.60;99.90;;;;;;4899247;29;20217;-70
2022/12/25 18:53:04;;;;;;;7.87;3.40;;;11.60;99.90;;;;;;4899070;29;20256;-71
2022/12/25 18:55:31;;;;;;;6.77;3.67;;;11.60;99.90;;;;;;4898581;29;20218;-70
2022/12/25 18:57:58;;;;;;;6.20;3.13;;;11.60;99.90;;;;;;4898833;29;20211;-70
2022/12/25 19:00:26;;;;;;;5.87;3.27;;;11.60;99.90;;;;;;4899146;29;20658;-70
2022/12/25 19:02:58;;;;;;;5.33;3.03;;;11.70;99.90;;;;;;4898489;29;20242;-70
2022/12/25 19:05:24;;;;;;;6.10;3.23;;;11.60;99.90;;;;;;4898984;29;20222;-70
2022/12/25 19:07:51;;;;;;;6.60;3.53;;;11.60;99.90;;;;;;4898308;29;20224;-71
2022/12/25 19:10:18;;;;;;;9.47;3.30;;;11.60;99.90;;;;;;4897541;29;20210;-69
2022/12/25 19:12:45;;;;;;;10.83;5.50;;;11.60;99.90;;;;;;4897521;29;20280;-70
2022/12/25 19:15:12;;;;;;;8.77;4.47;;;11.60;99.90;;;;;;4897801;29;20219;-70
2022/12/25 19:17:39;;;;;;;6.47;3.00;;;11.60;99.90;;;;;;4897320;29;20227;-71
2022/12/25 19:20:08;;;;;;;7.80;2.90;;;11.60;99.90;;;;;;4898253;29;20215;-72
2022/12/25 19:22:35;;;;;;;5.80;3.07;;;11.60;99.90;;;;;;4898124;29;20249;-73
2022/12/25 19:25:02;;;;;;;7.27;3.10;;;11.70;99.90;;;;;;4897665;29;20221;-73
2022/12/25 19:27:29;;;;;;;5.17;2.83;;;11.60;99.90;;;;;;4898046;29;20669;-74
2022/12/25 19:29:55;;;;;;;9.17;4.13;;;11.60;99.90;;;;;;4898379;29;20577;-71
2022/12/25 19:32:22;;;;;;;8.73;3.67;;;11.60;99.90;;;;;;4897963;29;20238;-71
2022/12/25 19:34:49;;;;;;;7.13;3.47;;;11.60;99.90;;;;;;4898051;29;20222;-72
2022/12/25 19:37:17;;;;;;;8.40;3.97;;;11.60;99.90;;;;;;4897626;29;20218;-72
2022/12/25 19:39:45;;;;;;;12.13;4.07;;;11.70;99.90;;;;;;4897601;29;20215;-70
2022/12/25 19:42:12;;;;;;;3.87;2.50;;;11.60;99.90;;;;;;4897912;29;20285;-73
2022/12/25 19:44:39;;;;;;;4.37;2.73;;;11.60;99.90;;;;;;4897824;29;20230;-73
2022/12/25 19:47:06;;;;;;;8.23;3.73;;;11.60;99.90;;;;;;4897751;29;20214;-72
2022/12/25 19:49:33;;;;;;;7.50;3.13;;;11.60;99.90;;;;;;4897417;29;20217;-75
2022/12/25 19:52:00;;;;;;;7.07;3.27;;;11.70;99.90;;;;;;4898662;29;20240;-74
2022/12/25 19:54:28;;;;;;;6.47;3.13;;;11.70;99.90;;;;;;4898664;29;20214;-74
2022/12/25 19:56:55;;;;;;;6.47;3.53;;;11.80;99.90;;;;;;4898738;29;20210;-74
2022/12/25 19:59:22;;;;;;;9.00;3.57;;;11.80;99.90;;;;;;4898869;29;20215;-74
2022/12/25 20:01:49;;;;;;;10.13;3.20;;;11.90;99.90;;;;;;4897734;29;20246;-73
2022/12/25 20:04:16;;;;;;;10.63;4.60;;;11.90;99.90;;;;;;4898591;29;20244;-73
2022/12/25 20:06:45;;;;;;;11.87;5.57;;;11.90;99.90;;;;;;4898252;29;20222;-73
2022/12/25 20:09:13;;;;;;;11.73;5.43;;;12.00;99.90;;;;;;4898278;29;20214;-76
2022/12/25 20:11:43;;;;;;;8.07;4.03;;;12.00;99.90;;;;;;4898432;29;20685;-73
2022/12/25 20:14:12;;;;;;;10.07;4.80;;;12.10;99.90;;;;;;4898594;29;20305;-77
2022/12/25 20:16:39;;;;;;;11.93;4.80;;;12.00;99.90;;;;;;4898517;29;20215;-75
2022/12/25 20:19:07;;;;;;;5.10;3.23;;;12.00;99.90;;;;;;4898196;29;20539;-76
2022/12/25 20:21:34;;;;;;;5.40;2.83;;;11.90;99.90;;;;;;4898350;29;20238;-75
2022/12/25 20:24:01;;;;;;;8.57;3.03;;;11.90;99.90;;;;;;4886369;29;20222;-73
2022/12/25 20:26:30;;;;;;;4.70;2.80;;;11.90;99.90;;;;;;4893595;29;20226;-75
2022/12/25 20:28:58;;;;;;;5.53;2.70;;;11.90;99.90;;;;;;4893344;29;20249;-75
2022/12/25 20:31:27;;;;;;;6.90;3.93;;;11.80;99.90;;;;;;4895564;29;20237;-74
2022/12/25 20:33:55;;;;;;;7.80;4.03;;;11.80;99.90;;;;;;4890348;29;20771;-75
2022/12/25 20:36:22;;;;;;;6.17;2.60;;;11.80;99.90;;;;;;4881255;29;20210;-75
2022/12/25 20:38:48;;;;;;;8.93;2.63;;;11.80;99.90;;;;;;4879784;29;20207;-75
2022/12/25 20:41:17;;;;;;;4.00;2.40;;;11.80;99.90;;;;;;4889951;29;20689;-74
2022/12/25 20:43:44;;;;;;;6.07;2.80;;;11.80;99.90;;;;;;4893253;29;20230;-75
2022/12/25 20:46:12;;;;;;;3.50;2.53;;;11.70;99.90;;;;;;4891298;29;20219;-73
2022/12/25 20:48:39;;;;;;;4.10;2.20;;;11.80;99.90;;;;;;4897323;29;20207;-74
2022/12/25 20:51:07;;;;;;;4.93;3.07;;;11.60;99.90;;;;;;4891400;29;20213;-75
2022/12/25 20:53:34;;;;;;;5.50;2.60;;;11.60;99.90;;;;;;4889906;29;20242;-73
2022/12/25 20:56:01;;;;;;;3.47;2.10;;;11.60;99.90;;;;;;4890525;29;20214;-74
2022/12/25 20:58:28;;;;;;;5.77;3.23;;;11.60;99.90;;;;;;4897318;29;20670;-74
2022/12/25 21:00:55;;;;;;;5.43;3.30;;;11.60;99.90;;;;;;4891064;29;20207;-74
2022/12/25 21:03:23;;;;;;;4.53;2.63;;;11.50;99.90;;;;;;4892763;29;20249;-74
2022/12/25 21:05:54;;;;;;;3.73;2.13;;;11.50;99.90;;;;;;4890918;29;20226;-74
2022/12/25 21:08:24;;;;;;;2.67;1.63;;;11.50;99.90;;;;;;4891866;29;20211;-77
2022/12/25 21:10:53;;;;;;;4.63;2.40;;;11.50;99.90;;;;;;4889099;29;20614;-75
2022/12/25 21:13:21;;;;;;;3.63;2.17;;;11.60;99.90;;;;;;4889776;29;20245;-75
2022/12/25 21:15:50;;;;;;;4.07;2.03;;;11.60;99.90;;;;;;4888053;29;20352;-75
2022/12/25 21:18:18;;;;;;;5.13;2.13;;;11.50;99.90;;;;;;4889798;29;20213;-77
2022/12/25 21:20:50;;;;;;;6.27;2.00;;;11.50;99.90;;;;;;4886665;29;20221;-75
2022/12/25 21:23:17;;;;;;;9.97;2.10;;;11.60;99.90;;;;;;4890412;29;20245;-72
2022/12/25 21:25:44;;;;;;;3.27;1.90;;;11.60;99.90;;;;;;4879350;29;20655;-72
2022/12/25 21:28:11;;;;;;;6.20;2.70;;;11.60;99.90;;;;;;4892760;29;20207;-75
2022/12/25 21:30:38;;;;;;;4.47;2.50;;;11.60;99.90;;;;;;4889483;29;20217;-72
2022/12/25 21:35:50;;;;;;;4.37;2.17;;;11.60;99.90;;;;;;4893674;29;20227;-75
2022/12/25 21:38:17;;;;;;;4.23;1.87;;;11.60;99.90;;;;;;4890874;29;20218;-75
2022/12/25 21:40:44;;;;;;;5.33;2.10;;;11.60;99.90;;;;;;4892024;29;20221;-75
2022/12/25 21:43:13;;;;;;;4.03;2.37;;;11.60;99.90;;;;;;4890473;29;20249;-75
2022/12/25 21:45:40;;;;;;;6.23;2.43;;;11.70;99.90;;;;;;4887386;29;20638;-75
2022/12/25 21:48:06;;;;;;;7.13;3.20;;;11.70;99.90;;;;;;4889410;29;20207;-75
2022/12/25 21:53:20;;;;;;;5.10;3.00;;;11.70;99.90;;;;;;4892397;29;20294;-72
2022/12/25 21:55:57;;;;;;;5.33;2.87;;;11.70;99.90;;;;;;4895351;29;20262;-73
2022/12/25 21:58:24;;;;;;;5.00;2.40;;;11.70;99.90;;;;;;4891040;29;20207;-73
2022/12/25 22:00:50;;;;;;;4.90;2.00;;;11.80;99.90;;;;;;4889585;29;20214;-77
2022/12/25 22:03:17;;;;;;;4.83;2.00;;;11.80;99.90;;;;;;4891452;29;20245;-77
2022/12/25 22:08:31;;;;;;;4.67;2.63;;;11.80;99.90;;;;;;4891384;29;20217;-69
2022/12/25 22:10:58;;;;;;;4.50;2.10;;;11.70;99.90;;;;;;4878432;29;20203;-70
